Time;durP1;ratioP1;P1;durP2;ratioP2;P2;SDS_P1;SDS_P2;PMS_P1;PMS_P2;Temp;Humidity;BMP_temperature;BMP_pressure;BME280_temperature;BME280_humidity;BME280_pressure;Samples;Min_cycle;Max_cycle;Signal;HPM_P1;HPM_P2
2022/10/18 00:00:29;;;;;;;;;;;;;;;;;;4974286;28;20060;-86
2022/10/18 00:02:55;;;;;;;37.30;21.90;;;;;;;;;;4985141;28;19918;-87
2022/10/18 00:05:20;;;;;;;;;;;;;;;;;;4967282;28;20030;-87
2022/10/18 00:07:46;;;;;;;40.85;22.77;;;;;;;;;;4972958;28;19925;-87
2022/10/18 00:10:12;;;;;;;36.92;21.98;;;;;;;;;;4963392;28;20053;-87
2022/10/18 00:12:39;;;;;;;38.03;22.55;;;;;;;;;;5007453;28;20041;-88
2022/10/18 00:15:06;;;;;;;36.78;22.20;;;;;;;;;;4985393;28;20481;-88
2022/10/18 00:17:33;;;;;;;34.75;21.55;;;;;;;;;;5008031;28;20069;-87
2022/10/18 00:19:59;;;;;;;35.05;22.08;;;;;;;;;;4982135;28;20033;-87
2022/10/18 00:22:25;;;;;;;37.38;21.98;;;;;;;;;;4985445;28;20030;-89
2022/10/18 00:24:51;;;;;;;33.50;21.88;;;;;;;;;;4984753;28;20045;-86
2022/10/18 00:27:17;;;;;;;;;;;;;;;;;;4972803;28;20032;-87
2022/10/18 00:29:43;;;;;;;33.42;20.88;;;;;;;;;;5071989;23;19936;-87
2022/10/18 00:32:11;;;;;;;36.13;20.90;;;;;;;;;;5019985;28;20104;-87
2022/10/18 00:34:38;;;;;;;30.98;20.85;;;;;;;;;;4988053;28;20010;-87
2022/10/18 00:37:04;;;;;;;32.20;20.48;;;;;;;;;;5010255;28;20038;-89
2022/10/18 00:39:31;;;;;;;34.22;21.52;;;;;;;;;;5007326;28;20085;-87
2022/10/18 00:41:57;;;;;;;36.03;22.20;;;;;;;;;;5014882;28;20042;-87
2022/10/18 00:44:23;;;;;;;;;;;;;;;;;;5001304;28;20043;-87
2022/10/18 00:46:48;;;;;;;42.92;21.38;;;;;;;;;;5007515;28;19913;-87
2022/10/18 00:49:14;;;;;;;;;;;;;;;;;;4992920;28;20025;-86
2022/10/18 00:51:45;;;;;;;36.63;22.00;;;;;;;;;;5004612;28;19973;-87
2022/10/18 00:54:30;;;;;;;33.75;21.88;;;;;;;;;;5016068;28;20068;-88
2022/10/18 00:57:02;;;;;;;33.70;21.27;;;;;;;;;;5039186;28;20097;-87
2022/10/18 00:59:27;;;;;;;;;;;;;;;;;;5007579;28;20036;-88
2022/10/18 01:01:53;;;;;;;30.23;20.15;;;;;;;;;;5044243;28;19900;-87
2022/10/18 01:04:18;;;;;;;;;;;;;;;;;;5002961;28;20036;-86
2022/10/18 01:07:11;;;;;;;33.40;21.30;;;;;;;;;;5033943;28;20385;-88
2022/10/18 01:09:38;;;;;;;32.97;21.88;;;;;;;;;;5003232;28;20046;-88
2022/10/18 01:12:08;;;;;;;37.90;22.38;;;;;;;;;;4999544;28;20034;-87
2022/10/18 01:14:57;;;;;;;39.90;22.08;;;;;;;;;;5016191;28;20061;-87
2022/10/18 01:17:45;;;;;;;37.92;21.55;;;;;;;;;;5005844;28;20068;-88
2022/10/18 01:20:17;;;;;;;38.63;24.05;;;;;;;;;;4992571;28;20053;-88
2022/10/18 01:22:44;;;;;;;35.10;22.83;;;;;;;;;;5007423;28;20034;-87
2022/10/18 01:25:19;;;;;;;35.95;20.60;;;;;;;;;;4985936;28;20089;-87
2022/10/18 01:27:46;;;;;;;36.17;21.50;;;;;;;;;;5010569;28;20030;-88
2022/10/18 01:30:30;;;;;;;33.28;21.95;;;;;;;;;;4994797;28;20052;-87
2022/10/18 01:33:04;;;;;;;31.52;20.27;;;;;;;;;;4999127;28;20065;-88
2022/10/18 01:35:34;;;;;;;30.95;20.20;;;;;;;;;;5001456;28;20034;-87
2022/10/18 01:38:00;;;;;;;33.90;20.60;;;;;;;;;;4998348;28;20030;-88
2022/10/18 01:40:26;;;;;;;31.27;19.45;;;;;;;;;;5016518;28;20041;-87
2022/10/18 01:42:51;;;;;;;;;;;;;;;;;;4997469;28;20022;-86
2022/10/18 01:45:17;;;;;;;31.88;19.02;;;;;;;;;;5013969;28;19917;-88
2022/10/18 01:47:43;;;;;;;32.38;20.33;;;;;;;;;;5001336;28;20080;-88
2022/10/18 01:50:09;;;;;;;;;;;;;;;;;;5008805;28;20504;-87
2022/10/18 01:52:34;;;;;;;31.65;19.45;;;;;;;;;;5002324;28;19909;-88
2022/10/18 01:55:01;;;;;;;33.10;19.00;;;;;;;;;;5017113;28;20038;-86
2022/10/18 01:57:26;;;;;;;;;;;;;;;;;;5007970;28;20030;-87
2022/10/18 02:00:04;;;;;;;30.70;20.13;;;;;;;;;;5018475;28;19917;-87
2022/10/18 02:02:39;;;;;;;34.17;19.85;;;;;;;;;;5025753;28;20060;-86
2022/10/18 02:05:13;;;;;;;31.63;19.38;;;;;;;;;;5003647;28;20041;-88
2022/10/18 02:07:42;;;;;;;32.13;19.75;;;;;;;;;;5005523;28;20026;-88
2022/10/18 02:10:14;;;;;;;32.42;20.60;;;;;;;;;;5032752;28;20032;-88
2022/10/18 02:12:41;;;;;;;35.08;20.05;;;;;;;;;;5019886;28;20100;-88
2022/10/18 02:15:07;;;;;;;;;;;;;;;;;;4996602;28;20021;-88
2022/10/18 02:17:32;;;;;;;33.13;20.45;;;;;;;;;;5031601;28;19914;-88
2022/10/18 02:19:59;;;;;;;33.65;21.33;;;;;;;;;;4997029;28;20022;-88
2022/10/18 02:22:25;;;;;;;31.17;19.20;;;;;;;;;;5005348;28;20086;-88
2022/10/18 02:24:52;;;;;;;37.08;20.35;;;;;;;;;;5001419;28;20041;-88
2022/10/18 02:27:18;;;;;;;37.03;20.67;;;;;;;;;;5002629;28;20034;-88
2022/10/18 02:29:43;;;;;;;39.92;21.13;;;;;;;;;;4997457;28;20060;-87
2022/10/18 02:32:28;;;;;;;33.13;20.00;;;;;;;;;;4989067;28;20069;-89
2022/10/18 02:35:01;;;;;;;34.72;20.98;;;;;;;;;;5012921;28;20034;-89
2022/10/18 02:37:28;;;;;;;44.72;21.73;;;;;;;;;;5011070;28;20045;-86
2022/10/18 02:39:53;;;;;;;47.60;20.80;;;;;;;;;;4986893;28;20061;-88
2022/10/18 02:42:19;;;;;;;38.95;21.10;;;;;;;;;;4989471;28;20030;-87
2022/10/18 02:44:44;;;;;;;;;;;;;;;;;;4977090;28;20030;-88
2022/10/18 02:47:10;;;;;;;51.72;21.05;;;;;;;;;;5003218;28;19917;-87
2022/10/18 02:49:36;;;;;;;58.38;22.85;;;;;;;;;;5004859;28;20030;-87
2022/10/18 02:52:02;;;;;;;35.78;20.35;;;;;;;;;;4990050;28;20037;-87
2022/10/18 02:54:28;;;;;;;36.25;20.08;;;;;;;;;;5002280;28;20030;-87
2022/10/18 02:56:54;;;;;;;34.20;20.40;;;;;;;;;;4991381;28;20041;-87
2022/10/18 02:59:19;;;;;;;40.50;21.60;;;;;;;;;;4994772;28;20030;-88
2022/10/18 03:01:45;;;;;;;;;;;;;;;;;;4984146;28;20128;-87
2022/10/18 03:04:10;;;;;;;43.83;20.25;;;;;;;;;;5015898;28;19890;-88
2022/10/18 03:06:36;;;;;;;47.80;22.73;;;;;;;;;;4999081;28;20037;-88
2022/10/18 03:09:01;;;;;;;;;;;;;;;;;;5019682;28;20025;-89
2022/10/18 03:11:27;;;;;;;41.40;21.73;;;;;;;;;;5025726;28;19921;-86
2022/10/18 03:13:53;;;;;;;42.10;22.33;;;;;;;;;;5026431;28;20041;-87
2022/10/18 03:16:19;;;;;;;58.35;23.52;;;;;;;;;;5016886;28;20050;-87
2022/10/18 03:18:46;;;;;;;38.60;20.65;;;;;;;;;;5021465;28;20057;-87
2022/10/18 03:21:13;;;;;;;37.75;20.52;;;;;;;;;;5015762;28;20053;-88
2022/10/18 03:23:40;;;;;;;44.95;21.23;;;;;;;;;;4987562;28;20090;-87
2022/10/18 03:26:07;;;;;;;51.95;19.40;;;;;;;;;;5023570;28;20037;-89
2022/10/18 03:28:51;;;;;;;71.15;20.58;;;;;;;;;;5024498;28;20056;-87
2022/10/18 03:31:17;;;;;;;47.10;22.83;;;;;;;;;;5006008;28;20034;-89
2022/10/18 03:33:43;;;;;;;;;;;;;;;;;;5013809;28;20030;-87
2022/10/18 03:36:09;;;;;;;38.55;21.08;;;;;;;;;;5016746;28;19889;-88
2022/10/18 03:38:44;;;;;;;44.92;22.67;;;;;;;;;;5004072;28;20053;-88
2022/10/18 03:41:11;;;;;;;42.55;21.73;;;;;;;;;;5007245;28;20528;-88
2022/10/18 03:43:40;;;;;;;60.20;22.48;;;;;;;;;;5028388;28;20057;-87
2022/10/18 03:46:06;;;;;;;38.55;21.50;;;;;;;;;;4986990;28;20006;-88
2022/10/18 03:48:32;;;;;;;41.65;23.00;;;;;;;;;;4991990;28;20025;-88
2022/10/18 03:50:58;;;;;;;;;;;;;;;;;;5000895;28;20034;-89
2022/10/18 03:53:23;;;;;;;34.47;20.83;;;;;;;;;;5024592;28;19917;-88
2022/10/18 03:55:52;;;;;;;38.58;21.25;;;;;;;;;;5004601;28;20030;-88
2022/10/18 03:58:41;;;;;;;48.60;22.00;;;;;;;;;;5143426;23;20150;-88
2022/10/18 04:01:07;;;;;;;40.10;21.23;;;;;;;;;;4988675;28;20034;-89
2022/10/18 04:03:34;;;;;;;37.45;20.98;;;;;;;;;;4968291;28;20026;-88
2022/10/18 04:06:24;;;;;;;33.40;21.90;;;;;;;;;;4975723;28;20042;-89
2022/10/18 04:08:55;;;;;;;39.08;20.58;;;;;;;;;;4964866;28;20054;-87
2022/10/18 04:11:21;;;;;;;34.25;21.25;;;;;;;;;;4973631;28;20049;-87
2022/10/18 04:13:47;;;;;;;32.67;19.98;;;;;;;;;;4945364;29;20043;-87
2022/10/18 04:16:12;;;;;;;34.72;22.02;;;;;;;;;;4974217;28;20041;-88
2022/10/18 04:18:38;;;;;;;;;;;;;;;;;;4965567;28;20060;-87
2022/10/18 04:21:04;;;;;;;35.03;20.13;;;;;;;;;;4987622;28;20003;-88
2022/10/18 04:23:30;;;;;;;36.75;21.15;;;;;;;;;;4963972;29;20031;-87
2022/10/18 04:25:57;;;;;;;42.75;22.10;;;;;;;;;;4995003;28;20031;-87
2022/10/18 04:28:23;;;;;;;39.28;21.65;;;;;;;;;;5124361;23;20435;-87
2022/10/18 04:30:48;;;;;;;;;;;;;;;;;;5013063;28;20037;-86
2022/10/18 04:33:14;;;;;;;40.50;21.55;;;;;;;;;;5015591;28;19915;-86
2022/10/18 04:35:39;;;;;;;33.80;21.83;;;;;;;;;;5003616;28;20076;-84
2022/10/18 04:38:05;;;;;;;33.50;21.13;;;;;;;;;;5005865;28;20033;-85
2022/10/18 04:40:31;;;;;;;33.53;21.95;;;;;;;;;;5005579;28;20026;-84
2022/10/18 04:42:57;;;;;;;37.97;20.92;;;;;;;;;;5006854;28;20033;-86
2022/10/18 04:45:23;;;;;;;31.77;20.85;;;;;;;;;;5014663;28;20046;-86
2022/10/18 04:47:49;;;;;;;39.42;24.02;;;;;;;;;;5016902;28;20022;-87
2022/10/18 04:50:17;;;;;;;32.92;20.60;;;;;;;;;;5013448;28;20038;-85
2022/10/18 04:52:43;;;;;;;35.33;20.52;;;;;;;;;;4998214;28;20058;-87
2022/10/18 04:55:10;;;;;;;33.88;21.27;;;;;;;;;;4985209;28;20037;-87
2022/10/18 04:57:35;;;;;;;32.60;20.23;;;;;;;;;;5004684;28;20097;-88
2022/10/18 05:00:01;;;;;;;33.38;20.10;;;;;;;;;;4999940;28;20034;-85
2022/10/18 05:02:27;;;;;;;35.85;20.80;;;;;;;;;;5002294;28;20066;-86
2022/10/18 05:04:53;;;;;;;31.88;19.90;;;;;;;;;;5003240;28;20033;-87
2022/10/18 05:07:19;;;;;;;36.45;23.52;;;;;;;;;;5005076;28;20030;-85
2022/10/18 05:09:45;;;;;;;34.20;20.85;;;;;;;;;;5018244;28;20468;-87
2022/10/18 05:12:11;;;;;;;31.90;20.42;;;;;;;;;;4999896;28;20035;-87
2022/10/18 05:14:42;;;;;;;33.92;20.17;;;;;;;;;;5008351;28;20042;-86
2022/10/18 05:17:09;;;;;;;31.17;19.25;;;;;;;;;;5225600;23;20034;-87
2022/10/18 05:19:34;;;;;;;30.25;19.80;;;;;;;;;;4987398;28;20041;-87
2022/10/18 05:22:01;;;;;;;30.85;19.60;;;;;;;;;;5018771;28;20035;-88
2022/10/18 05:24:27;;;;;;;28.27;18.20;;;;;;;;;;4989449;28;20065;-88
2022/10/18 05:26:52;;;;;;;29.17;19.02;;;;;;;;;;5000686;28;20037;-88
2022/10/18 05:29:20;;;;;;;29.08;18.90;;;;;;;;;;5001610;28;20033;-87
2022/10/18 05:31:45;;;;;;;;;;;;;;;;;;4986483;28;20006;-86
2022/10/18 05:36:49;;;;;;;28.77;18.85;;;;;;;;;;5081914;23;20061;-88
2022/10/18 05:39:15;;;;;;;26.35;18.73;;;;;;;;;;5025358;28;20017;-87
2022/10/18 05:41:48;;;;;;;28.90;19.10;;;;;;;;;;5040474;28;20021;-87
2022/10/18 05:44:24;;;;;;;31.60;20.05;;;;;;;;;;5025522;28;20020;-88
2022/10/18 05:46:52;;;;;;;30.60;19.23;;;;;;;;;;5040993;28;20065;-87
2022/10/18 05:49:18;;;;;;;30.88;19.17;;;;;;;;;;5041893;28;20017;-88
2022/10/18 05:51:48;;;;;;;30.15;19.05;;;;;;;;;;5139032;23;20058;-86
2022/10/18 05:54:18;;;;;;;32.70;19.52;;;;;;;;;;5004383;28;20022;-88
2022/10/18 05:56:46;;;;;;;34.88;21.50;;;;;;;;;;5020989;28;20037;-87
2022/10/18 05:59:14;;;;;;;31.27;19.92;;;;;;;;;;4999977;28;20038;-86
2022/10/18 06:23:36;;;;;;;37.63;21.15;;;;;;;;;;4999033;28;20162;-88
2022/10/18 06:36:51;;;;;;;39.67;22.70;;;;;;;;;;5033686;28;20113;-88
2022/10/18 06:39:17;;;;;;;;;;;;;;;;;;5015922;28;20041;-87
2022/10/18 06:41:42;;;;;;;28.15;18.98;;;;;;;;;;5032455;28;19893;-86
2022/10/18 06:44:18;;;;;;;29.48;19.45;;;;;;;;;;5024629;28;20087;-88
2022/10/18 06:49:44;;;;;;;33.42;21.65;;;;;;;;;;5095848;23;20053;-87
2022/10/18 06:52:10;;;;;;;33.08;19.67;;;;;;;;;;5054697;28;20052;-88
2022/10/18 06:54:36;;;;;;;;;;;;;;;;;;5206676;23;21024;-88
2022/10/18 07:14:57;;;;;;;36.28;21.85;;;;;;;;;;1285180;23;20437;-87
2022/10/18 07:17:50;;;;;;;35.47;21.50;;;;;;;;;;5128664;23;20041;-88
2022/10/18 07:20:43;;;;;;;36.05;22.80;;;;;;;;;;5018110;28;20014;-90
2022/10/18 07:42:53;;;;;;;43.00;28.13;;;;;;;;;;5418744;22;20433;-88
2022/10/18 07:48:23;;;;;;;37.70;26.00;;;;;;;;;;5028197;28;20065;-88
2022/10/18 07:50:51;;;;;;;43.17;27.17;;;;;;;;;;5017593;28;20082;-87
2022/10/18 07:53:25;;;;;;;40.60;28.10;;;;;;;;;;5020588;28;20053;-87
2022/10/18 07:55:57;;;;;;;42.95;27.40;;;;;;;;;;5021017;28;20022;-88
2022/10/18 07:58:41;;;;;;;39.67;27.75;;;;;;;;;;5006293;28;20042;-88
2022/10/18 08:01:08;;;;;;;;;;;;;;;;;;5004393;28;20046;-87
2022/10/18 08:06:36;;;;;;;47.13;30.42;;;;;;;;;;1463616;26;20033;-88
2022/10/18 08:13:11;;;;;;;46.08;31.88;;;;;;;;;;5327464;23;20029;-88
2022/10/18 09:34:50;;;;;;;30.15;20.98;;;;;;;;;;1598140;23;20105;-87
2022/10/18 09:37:26;;;;;;;31.85;20.20;;;;;;;;;;4982198;28;20014;-88
2022/10/18 09:39:55;;;;;;;28.17;18.93;;;;;;;;;;4963829;28;20015;-89
2022/10/18 09:42:42;;;;;;;26.17;18.70;;;;;;;;;;4980241;28;20103;-89
2022/10/18 09:45:30;;;;;;;25.33;17.98;;;;;;;;;;4946602;29;20030;-87
2022/10/18 09:48:25;;;;;;;26.63;17.42;;;;;;;;;;5013961;28;20038;-88
2022/10/18 09:50:59;;;;;;;26.80;17.50;;;;;;;;;;4982210;28;20045;-87
2022/10/18 09:53:56;;;;;;;23.60;17.60;;;;;;;;;;4965887;28;20019;-90
2022/10/18 09:56:25;;;;;;;22.90;16.33;;;;;;;;;;4896509;29;20053;-89
2022/10/18 09:59:03;;;;;;;24.45;16.63;;;;;;;;;;4991180;28;20030;-88
2022/10/18 10:04:33;;;;;;;22.50;16.73;;;;;;;;;;5521225;23;20046;-89
2022/10/18 10:07:18;;;;;;;24.30;16.48;;;;;;;;;;5043573;28;20010;-88
2022/10/18 10:10:06;;;;;;;21.55;15.70;;;;;;;;;;5031716;28;20033;-90
2022/10/18 10:43:06;;;;;;;19.80;14.38;;;;;;;;;;5591460;22;20067;-89
2022/10/18 10:49:16;;;;;;;19.10;14.48;;;;;;;;;;5056461;23;20096;-88
2022/10/18 10:52:07;;;;;;;24.35;14.65;;;;;;;;;;5031822;28;20049;-89
2022/10/18 10:55:00;;;;;;;17.17;13.90;;;;;;;;;;5023144;28;20063;-89
2022/10/18 11:48:14;;;;;;;17.88;12.40;;;;;;;;;;3642385;23;20050;-88
2022/10/18 12:00:04;;;;;;;15.55;11.50;;;;;;;;;;5021819;28;20061;-88
2022/10/18 16:41:14;;;;;;;12.75;8.88;;;;;;;;;;3197164;23;20061;-79
2022/10/18 17:13:16;;;;;;;12.85;9.15;;;;;;;;;;5802937;23;20100;-85
2022/10/18 17:39:15;;;;;;;11.05;9.70;;;;;;;;;;4944872;22;21021;-83
2022/10/18 18:35:33;;;;;;;10.60;8.10;;;;;;;;;;5302722;22;19921;-88
2022/10/18 18:38:12;;;;;;;10.80;8.07;;;;;;;;;;5017845;28;20045;-87
2022/10/18 18:40:46;;;;;;;10.80;8.35;;;;;;;;;;5039629;28;20089;-88
